Time;durP1;ratioP1;P1;durP2;ratioP2;P2;SDS_P1;SDS_P2;PMS_P1;PMS_P2;Temp;Humidity;BMP_temperature;BMP_pressure;BME280_temperature;BME280_humidity;BME280_pressure;Samples;Min_cycle;Max_cycle;Signal;HPM_P1;HPM_P2
2023/01/27 00:01:56;;;;;;;;;;;;;;;0.54;100.00;100480.75;5589312;31;34856;-68
2023/01/27 00:05:05;;;;;;;;;;;;;;;0.54;100.00;100478.13;5589394;31;34700;-68
2023/01/27 00:08:14;;;;;;;;;;;;;;;0.74;100.00;100474.19;5589057;31;34279;-68
2023/01/27 00:14:46;;;;;;;;;;;;;;;0.49;100.00;100467.16;5589028;31;34197;-69
2023/01/27 00:17:55;;;;;;;;;;;;;;;0.57;100.00;100466.69;5588943;31;34384;-68
2023/01/27 00:24:35;;;;;;;;;;;;;;;0.48;100.00;100473.34;5589157;31;34267;-68
2023/01/27 00:27:44;;;;;;;;;;;;;;;0.55;100.00;100468.53;5589005;31;34857;-68
2023/01/27 00:30:54;;;;;;;;;;;;;;;0.48;100.00;100462.91;5575730;31;34173;-68
2023/01/27 00:34:10;;;;;;;;;;;;;;;0.53;100.00;100450.37;5589041;31;34712;-68
2023/01/27 00:37:19;;;;;;;;;;;;;;;0.52;100.00;100460.91;5588834;31;34572;-68
2023/01/27 00:40:28;;;;;;;;;;;;;;;0.49;100.00;100456.72;5588696;31;34185;-69
2023/01/27 00:43:39;;;;;;;;;;;;;;;0.48;100.00;100462.06;5575610;31;34419;-68
2023/01/27 00:46:45;;;;;;;;;;;;;;;0.52;100.00;100466.97;5588705;31;34719;-68
2023/01/27 00:49:55;;;;;;;;;;;;;;;0.54;100.00;100464.25;5588510;31;34193;-68
2023/01/27 00:53:04;;;;;;;;;;;;;;;0.47;100.00;100463.00;5588793;31;34914;-68
2023/01/27 00:56:12;;;;;;;;;;;;;;;0.56;100.00;100460.63;5588559;31;34276;-68
2023/01/27 00:59:21;;;;;;;;;;;;;;;0.53;100.00;100460.00;5588457;31;34411;-68
2023/01/27 01:02:31;;;;;;;;;;;;;;;0.48;100.00;100465.53;5588496;31;34358;-69
2023/01/27 01:05:40;;;;;;;;;;;;;;;0.53;100.00;100458.22;5588470;31;34176;-69
2023/01/27 01:08:53;;;;;;;;;;;;;;;0.51;100.00;100460.09;5588334;31;34196;-69
2023/01/27 01:12:00;;;;;;;;;;;;;;;0.50;100.00;100454.97;5575183;31;34809;-68
2023/01/27 01:15:10;;;;;;;;;;;;;;;0.48;100.00;100459.47;5575426;31;35431;-68
2023/01/27 01:18:21;;;;;;;;;;;;;;;0.47;100.00;100455.16;5588096;31;34272;-68
2023/01/27 01:21:29;;;;;;;;;;;;;;;0.51;100.00;100444.44;5588055;31;34221;-69
2023/01/27 01:24:36;;;;;;;;;;;;;;;0.54;100.00;100452.03;5588009;31;34200;-68
2023/01/27 01:27:44;;;;;;;;;;;;;;;0.50;100.00;100453.19;5575246;31;34110;-68
2023/01/27 01:30:52;;;;;;;;;;;;;;;0.37;100.00;100441.91;5590919;31;34790;-68
2023/01/27 01:33:59;;;;;;;;;;;;;;;0.34;100.00;100445.53;5590857;31;34232;-68
2023/01/27 01:37:05;;;;;;;;;;;;;;;0.45;100.00;100447.44;5577444;31;34660;-68
2023/01/27 01:40:12;;;;;;;;;;;;;;;0.28;100.00;100437.28;5590975;31;34909;-68
2023/01/27 01:43:19;;;;;;;;;;;;;;;0.31;100.00;100443.13;5577515;31;34812;-68
2023/01/27 01:46:30;;;;;;;;;;;;;;;0.40;100.00;100434.69;5590838;31;34128;-68
2023/01/27 01:49:40;;;;;;;;;;;;;;;0.39;100.00;100442.59;5590828;31;34117;-68
2023/01/27 01:52:51;;;;;;;;;;;;;;;0.25;100.00;100443.53;5577809;31;34171;-69
2023/01/27 01:56:00;;;;;;;;;;;;;;;0.22;100.00;100438.53;5590774;31;34845;-68
2023/01/27 01:59:11;;;;;;;;;;;;;;;0.27;100.00;100446.03;5590608;31;34836;-68
2023/01/27 02:02:21;;;;;;;;;;;;;;;0.38;100.00;100439.19;5590545;31;34226;-68
2023/01/27 02:05:32;;;;;;;;;;;;;;;0.32;100.00;100439.59;5590565;31;34191;-68
2023/01/27 02:08:39;;;;;;;;;;;;;;;0.35;100.00;100438.53;5590372;31;34884;-68
2023/01/27 02:11:46;;;;;;;;;;;;;;;0.37;100.00;100432.28;5577201;31;34090;-68
2023/01/27 02:14:58;;;;;;;;;;;;;;;0.42;100.00;100425.00;5590551;31;34202;-68
2023/01/27 02:18:08;;;;;;;;;;;;;;;0.32;100.00;100428.31;5590431;31;34208;-68
2023/01/27 02:21:14;;;;;;;;;;;;;;;0.34;100.00;100419.44;5577007;31;34315;-68
2023/01/27 02:24:28;;;;;;;;;;;;;;;0.28;100.00;100414.66;5590513;31;34859;-68
2023/01/27 02:27:37;;;;;;;;;;;;;;;0.24;100.00;100414.94;5590352;31;34382;-68
2023/01/27 02:30:46;;;;;;;;;;;;;;;0.15;100.00;100415.53;5590691;31;34219;-68
2023/01/27 02:34:05;;;;;;;;;;;;;;;0.22;100.00;100409.81;5577621;31;34933;-68
2023/01/27 02:37:13;;;;;;;;;;;;;;;0.26;100.00;100407.84;5577394;31;34611;-68
2023/01/27 02:40:21;;;;;;;;;;;;;;;0.09;100.00;100405.53;5590114;31;34692;-68
2023/01/27 02:43:28;;;;;;;;;;;;;;;-0.01;100.00;100395.69;5590151;31;34792;-68
2023/01/27 02:46:39;;;;;;;;;;;;;;;0.01;100.00;100387.75;5577281;31;34220;-69
2023/01/27 02:49:48;;;;;;;;;;;;;;;-0.01;100.00;100385.25;5590230;31;34216;-68
2023/01/27 02:52:59;;;;;;;;;;;;;;;-0.14;100.00;100386.97;5590215;31;33752;-69
2023/01/27 02:56:10;;;;;;;;;;;;;;;-0.19;100.00;100383.00;5590505;31;34247;-68
2023/01/27 02:59:18;;;;;;;;;;;;;;;-0.19;100.00;100370.81;5590308;31;34725;-68
2023/01/27 03:02:29;;;;;;;;;;;;;;;-0.36;100.00;100388.47;5576721;31;34363;-68
2023/01/27 03:05:41;;;;;;;;;;;;;;;-0.45;100.00;100377.72;5590165;31;34533;-69
2023/01/27 03:08:51;;;;;;;;;;;;;;;-0.57;100.00;100375.03;5589852;31;34132;-69
2023/01/27 03:18:59;;;;;;;;;;;;;;;-0.71;100.00;100359.44;5589999;31;34845;-68
2023/01/27 03:22:07;;;;;;;;;;;;;;;-0.70;100.00;100364.56;5589698;31;34460;-68
2023/01/27 03:25:16;;;;;;;;;;;;;;;-0.75;100.00;100356.19;5589895;31;34291;-68
2023/01/27 03:28:23;;;;;;;;;;;;;;;-0.75;100.00;100360.56;5589950;31;34747;-68
2023/01/27 03:31:30;;;;;;;;;;;;;;;-0.78;100.00;100355.56;5589893;31;34879;-69
2023/01/27 03:34:40;;;;;;;;;;;;;;;-0.65;100.00;100351.25;5576969;31;33699;-68
2023/01/27 03:48:08;;;;;;;;;;;;;;;-0.72;100.00;100339.53;5589799;31;34146;-68
2023/01/27 03:51:14;;;;;;;;;;;;;;;-0.83;100.00;100340.22;5588875;31;34302;-68
2023/01/27 03:54:21;;;;;;;;;;;;;;;-0.86;100.00;100337.81;5589682;31;34165;-67
2023/01/27 03:57:30;;;;;;;;;;;;;;;-0.85;100.00;100333.44;5589662;31;33194;-68
2023/01/27 04:00:38;;;;;;;;;;;;;;;-0.91;100.00;100332.88;5589578;31;34466;-68
2023/01/27 04:07:18;;;;;;;;;;;;;;;-0.79;100.00;100326.06;5559898;31;921386;-68
2023/01/27 04:10:26;;;;;;;;;;;;;;;-0.73;100.00;100328.31;5576254;31;34691;-68
2023/01/27 04:13:36;;;;;;;;;;;;;;;-0.73;100.00;100314.44;5589316;31;34195;-68
2023/01/27 04:16:46;;;;;;;;;;;;;;;-0.60;100.00;100318.75;5589479;31;34844;-67
2023/01/27 04:19:53;;;;;;;;;;;;;;;-0.54;100.00;100320.12;5589393;31;34547;-68
2023/01/27 04:23:01;;;;;;;;;;;;;;;-0.58;100.00;100329.09;5589245;31;34127;-68
2023/01/27 04:26:08;;;;;;;;;;;;;;;-0.51;100.00;100320.78;5575783;31;34167;-68
2023/01/27 04:29:17;;;;;;;;;;;;;;;-0.74;100.00;100333.59;5575963;31;34276;-68
2023/01/27 04:32:23;;;;;;;;;;;;;;;-0.84;100.00;100329.91;5589073;31;34207;-68
2023/01/27 04:35:31;;;;;;;;;;;;;;;-0.93;100.00;100324.34;5588910;31;34523;-68
2023/01/27 04:38:48;;;;;;;;;;;;;;;-0.93;100.00;100326.97;5589280;31;34141;-68
2023/01/27 04:41:58;;;;;;;;;;;;;;;-1.10;100.00;100331.53;5575876;31;34804;-68
2023/01/27 04:45:06;;;;;;;;;;;;;;;-1.18;100.00;100332.00;5575586;31;34300;-68
2023/01/27 04:48:14;;;;;;;;;;;;;;;-1.10;100.00;100332.34;5575755;31;34271;-69
2023/01/27 04:51:19;;;;;;;;;;;;;;;-1.27;100.00;100339.53;5588642;31;34213;-68
2023/01/27 04:54:28;;;;;;;;;;;;;;;-1.34;100.00;100332.09;5588545;31;34802;-67
2023/01/27 04:57:36;;;;;;;;;;;;;;;-1.50;100.00;100341.75;5588660;31;34363;-68
2023/01/27 05:00:46;;;;;;;;;;;;;;;-1.26;100.00;100343.81;5588562;31;34556;-67
2023/01/27 05:03:54;;;;;;;;;;;;;;;-1.43;100.00;100340.47;5591011;31;34184;-69
2023/01/27 05:07:02;;;;;;;;;;;;;;;-1.39;100.00;100349.75;5577721;31;34646;-68
2023/01/27 05:10:09;;;;;;;;;;;;;;;-1.57;100.00;100348.28;5591233;31;34246;-68
2023/01/27 05:13:16;;;;;;;;;;;;;;;-1.59;100.00;100347.53;5577636;31;34147;-68
2023/01/27 05:16:26;;;;;;;;;;;;;;;-1.62;100.00;100345.13;5591053;31;34193;-68
2023/01/27 05:19:34;;;;;;;;;;;;;;;-1.56;100.00;100349.97;5577790;31;34143;-68
2023/01/27 05:22:41;;;;;;;;;;;;;;;-1.58;100.00;100341.41;5577717;31;34300;-68
2023/01/27 05:25:53;;;;;;;;;;;;;;;-1.43;100.00;100340.47;5591114;31;33737;-68
2023/01/27 05:29:01;;;;;;;;;;;;;;;-1.26;100.00;100336.03;5590982;31;34273;-68
2023/01/27 05:32:10;;;;;;;;;;;;;;;-1.20;100.00;100339.06;5591011;31;34350;-68
2023/01/27 05:35:17;;;;;;;;;;;;;;;-1.31;100.00;100337.12;5591037;31;34059;-68
2023/01/27 05:38:24;;;;;;;;;;;;;;;-1.19;100.00;100334.69;5590907;31;34125;-68
2023/01/27 05:41:30;;;;;;;;;;;;;;;-1.24;100.00;100336.75;5590821;31;34611;-69
2023/01/27 05:44:36;;;;;;;;;;;;;;;-1.42;100.00;100342.16;5590842;31;34769;-69
2023/01/27 05:47:43;;;;;;;;;;;;;;;-1.54;100.00;100336.84;5590940;31;34170;-68
2023/01/27 05:50:56;;;;;;;;;;;;;;;-1.47;100.00;100344.19;5576842;31;33350;-68
2023/01/27 05:54:06;;;;;;;;;;;;;;;-1.62;100.00;100337.31;5590674;31;34544;-68
2023/01/27 05:57:13;;;;;;;;;;;;;;;-1.57;100.00;100342.22;5590825;31;34480;-68
2023/01/27 06:00:19;;;;;;;;;;;;;;;-1.38;100.00;100343.62;5590736;31;34099;-68
2023/01/27 06:03:26;;;;;;;;;;;;;;;-1.24;100.00;100336.75;5590526;31;35019;-68
2023/01/27 06:06:33;;;;;;;;;;;;;;;-1.19;100.00;100337.31;5576993;31;34299;-69
2023/01/27 06:09:42;;;;;;;;;;;;;;;-1.12;100.00;100342.06;5590560;31;33896;-69
2023/01/27 06:12:49;;;;;;;;;;;;;;;-1.04;100.00;100342.41;5590250;31;34839;-69
2023/01/27 06:15:56;;;;;;;;;;;;;;;-1.07;100.00;100344.38;5590286;31;34474;-68
2023/01/27 06:19:03;;;;;;;;;;;;;;;-1.11;100.00;100335.87;5590404;31;34858;-69
2023/01/27 06:22:12;;;;;;;;;;;;;;;-1.08;100.00;100329.66;5590272;31;34117;-70
2023/01/27 06:25:18;;;;;;;;;;;;;;;-0.97;100.00;100330.66;5576327;31;33404;-69
2023/01/27 06:28:23;;;;;;;;;;;;;;;-0.92;100.00;100319.97;5576642;31;34171;-69
2023/01/27 06:31:32;;;;;;;;;;;;;;;-1.00;100.00;100327.41;5590090;31;34689;-69
2023/01/27 06:34:37;;;;;;;;;;;;;;;-0.87;100.00;100334.34;5590171;31;34465;-70
2023/01/27 06:37:41;;;;;;;;;;;;;;;-0.79;100.00;100333.88;5589990;31;33958;-69
2023/01/27 06:40:49;;;;;;;;;;;;;;;-0.83;100.00;100342.84;5576979;31;34819;-69
2023/01/27 06:43:53;;;;;;;;;;;;;;;-0.60;100.00;100341.38;5590261;31;33781;-69
2023/01/27 06:47:02;;;;;;;;;;;;;;;-0.56;100.00;100341.06;5589952;31;34838;-68
2023/01/27 06:50:09;;;;;;;;;;;;;;;-0.37;100.00;100338.13;5576732;31;34883;-69
2023/01/27 06:53:16;;;;;;;;;;;;;;;-0.32;100.00;100343.88;5590046;31;34379;-69
2023/01/27 06:56:21;;;;;;;;;;;;;;;-0.21;100.00;100344.00;5589703;31;34052;-69
2023/01/27 06:59:26;;;;;;;;;;;;;;;-0.21;100.00;100348.38;5563646;31;34142;-68
2023/01/27 07:02:30;;;;;;;;;;;;;;;-0.11;100.00;100346.84;5576489;31;34215;-68
2023/01/27 07:05:36;;;;;;;;;;;;;;;-0.09;100.00;100343.19;5590106;31;34246;-69
2023/01/27 07:08:41;;;;;;;;;;;;;;;0.06;100.00;100351.78;5589860;31;34843;-69
2023/01/27 07:11:47;;;;;;;;;;;;;;;0.00;100.00;100347.78;5576250;31;33098;-67
2023/01/27 07:14:54;;;;;;;;;;;;;;;0.17;100.00;100343.25;5590373;31;34157;-68
2023/01/27 07:17:59;;;;;;;;;;;;;;;0.21;100.00;100345.53;5590111;31;34070;-68
2023/01/27 07:21:04;;;;;;;;;;;;;;;0.34;100.00;100350.75;5589837;31;34222;-68
2023/01/27 07:24:09;;;;;;;;;;;;;;;0.35;100.00;100353.28;5562915;31;33703;-69
2023/01/27 07:27:14;;;;;;;;;;;;;;;0.47;100.00;100362.06;5588829;31;34156;-69
2023/01/27 07:30:18;;;;;;;;;;;;;;;0.38;100.00;100360.06;5576115;31;34826;-69
2023/01/27 07:33:24;;;;;;;;;;;;;;;0.46;100.00;100362.16;5575528;31;34308;-69
2023/01/27 07:36:28;;;;;;;;;;;;;;;0.58;100.00;100363.94;5576209;31;34263;-69
2023/01/27 07:39:34;;;;;;;;;;;;;;;0.52;100.00;100361.75;5589843;31;34453;-70
2023/01/27 07:42:40;;;;;;;;;;;;;;;0.57;100.00;100363.09;5576285;31;34789;-69
2023/01/27 07:45:47;;;;;;;;;;;;;;;0.62;100.00;100354.94;5589848;31;34996;-69
2023/01/27 07:48:54;;;;;;;;;;;;;;;0.49;100.00;100347.09;5589723;31;34149;-69
2023/01/27 07:51:59;;;;;;;;;;;;;;;0.54;100.00;100349.41;5589291;31;34191;-69
2023/01/27 07:55:04;;;;;;;;;;;;;;;0.75;100.00;100345.31;5576103;31;33630;-69
2023/01/27 07:58:08;;;;;;;;;;;;;;;0.75;100.00;100343.56;5575838;31;34079;-69
2023/01/27 08:01:14;;;;;;;;;;;;;;;0.82;100.00;100347.41;5576593;31;33926;-69
2023/01/27 08:04:19;;;;;;;;;;;;;;;0.85;100.00;100349.81;5589743;31;34169;-69
2023/01/27 08:07:26;;;;;;;;;;;;;;;0.91;100.00;100351.16;5589146;31;34873;-69
2023/01/27 08:10:31;;;;;;;;;;;;;;;0.93;99.17;100351.88;5576095;31;34173;-70
2023/01/27 08:13:36;;;;;;;;;;;;;;;1.14;98.29;100353.00;5575944;31;34062;-70
2023/01/27 08:16:40;;;;;;;;;;;;;;;1.24;97.08;100354.00;5589305;31;34468;-68
2023/01/27 08:19:44;;;;;;;;;;;;;;;1.19;97.98;100363.13;5589222;31;34646;-68
2023/01/27 08:22:50;;;;;;;;;;;;;;;1.26;95.82;100351.25;5589279;31;34868;-69
2023/01/27 08:25:57;;;;;;;;;;;;;;;1.09;99.57;100357.69;5575753;31;34225;-69
2023/01/27 08:29:02;;;;;;;;;;;;;;;1.17;96.41;100355.37;5589033;31;34180;-69
2023/01/27 08:32:05;;;;;;;;;;;;;;;0.98;95.55;100370.66;5588913;31;34398;-68
2023/01/27 08:35:10;;;;;;;;;;;;;;;0.89;96.24;100371.31;5589075;31;34117;-68
2023/01/27 08:38:16;;;;;;;;;;;;;;;1.01;96.63;100356.56;5577175;31;34722;-69
2023/01/27 08:41:21;;;;;;;;;;;;;;;1.06;96.98;100363.16;5591773;31;34855;-69
2023/01/27 08:44:27;;;;;;;;;;;;;;;1.03;94.62;100368.56;5591384;31;34808;-69
2023/01/27 08:47:33;;;;;;;;;;;;;;;1.14;96.08;100373.88;5577418;31;33356;-69
2023/01/27 08:50:38;;;;;;;;;;;;;;;1.26;94.71;100369.56;5577818;31;34329;-68
2023/01/27 08:53:42;;;;;;;;;;;;;;;1.23;94.27;100369.78;5577384;31;35507;-69
2023/01/27 08:56:46;;;;;;;;;;;;;;;1.23;92.26;100377.62;5591075;31;35130;-68
2023/01/27 08:59:50;;;;;;;;;;;;;;;1.28;90.05;100376.34;5564562;31;34017;-69
2023/01/27 09:02:54;;;;;;;;;;;;;;;1.28;89.62;100373.75;5591109;31;34846;-68
2023/01/27 09:05:59;;;;;;;;;;;;;;;1.24;87.10;100374.06;5577757;31;33844;-68
2023/01/27 09:09:07;;;;;;;;;;;;;;;1.12;85.78;100375.75;5565025;31;34914;-69
2023/01/27 09:12:16;;;;;;;;;;;;;;;1.18;87.96;100380.56;5590922;31;34343;-69
2023/01/27 09:15:20;;;;;;;;;;;;;;;1.25;86.94;100381.81;5576983;31;34961;-68
2023/01/27 09:18:25;;;;;;;;;;;;;;;1.43;86.10;100387.50;5590931;31;34768;-69
2023/01/27 09:21:31;;;;;;;;;;;;;;;1.24;83.86;100380.13;5577355;31;34344;-69
2023/01/27 09:24:37;;;;;;;;;;;;;;;1.37;84.70;100380.09;5590876;31;34156;-68
2023/01/27 09:27:41;;;;;;;;;;;;;;;1.50;83.01;100385.28;5590876;31;34503;-69
2023/01/27 09:30:45;;;;;;;;;;;;;;;1.43;81.86;100386.66;5577130;31;34350;-68
2023/01/27 09:33:49;;;;;;;;;;;;;;;1.32;84.32;100387.41;5590710;31;34458;-69
2023/01/27 09:36:59;;;;;;;;;;;;;;;1.30;85.98;100390.16;5577037;31;33817;-68
2023/01/27 09:40:12;;;;;;;;;;;;;;;1.04;88.36;100395.53;5577661;31;34374;-69
2023/01/27 09:43:33;;;;;;;;;;;;;;;0.78;96.03;100400.78;5590516;31;34044;-68
2023/01/27 09:46:44;;;;;;;;;;;;;;;0.74;96.93;100399.31;5590644;31;34148;-68
2023/01/27 09:50:04;;;;;;;;;;;;;;;0.83;99.87;100393.47;5589901;31;34295;-69
2023/01/27 09:53:27;;;;;;;;;;;;;;;0.79;99.02;100389.41;5576861;31;34804;-69
2023/01/27 09:56:37;;;;;;;;;;;;;;;1.12;98.39;100394.06;5590550;31;34175;-69
2023/01/27 10:00:01;;;;;;;;;;;;;;;1.15;97.24;100398.25;5590379;31;35057;-68
2023/01/27 10:03:06;;;;;;;;;;;;;;;1.20;97.52;100391.75;5590562;31;34331;-69
2023/01/27 10:06:23;;;;;;;;;;;;;;;1.03;100.00;100389.47;5563452;31;33223;-69
2023/01/27 10:09:37;;;;;;;;;;;;;;;0.94;100.00;100386.66;5590413;31;34409;-69
2023/01/27 10:12:47;;;;;;;;;;;;;;;1.04;100.00;100390.31;5590302;31;34777;-69
2023/01/27 10:16:03;;;;;;;;;;;;;;;1.16;99.60;100387.66;5590428;31;34258;-69
2023/01/27 10:19:29;;;;;;;;;;;;;;;1.06;100.00;100388.44;5576831;31;34095;-68
2023/01/27 10:22:54;;;;;;;;;;;;;;;0.98;100.00;100385.50;5577156;31;34825;-69
2023/01/27 10:26:01;;;;;;;;;;;;;;;1.20;100.00;100388.31;5590185;31;34913;-68
2023/01/27 10:29:16;;;;;;;;;;;;;;;1.26;100.00;100385.22;5577066;31;35502;-68
2023/01/27 10:32:26;;;;;;;;;;;;;;;1.54;100.00;100384.12;5590207;31;34509;-68
2023/01/27 10:35:41;;;;;;;;;;;;;;;1.00;100.00;100383.63;5590348;31;34189;-68
2023/01/27 10:38:46;;;;;;;;;;;;;;;0.95;100.00;100381.34;5590313;31;34413;-68
2023/01/27 10:41:52;;;;;;;;;;;;;;;1.18;100.00;100384.94;5590409;31;34594;-68
2023/01/27 10:44:57;;;;;;;;;;;;;;;1.01;100.00;100378.31;5590073;31;34942;-67
2023/01/27 10:48:22;;;;;;;;;;;;;;;0.67;100.00;100379.81;5590234;31;34956;-68
2023/01/27 10:51:32;;;;;;;;;;;;;;;0.95;100.00;100373.50;5576573;31;34507;-68
2023/01/27 10:54:48;;;;;;;;;;;;;;;0.86;100.00;100372.37;5564054;31;34278;-68
2023/01/27 10:57:56;;;;;;;;;;;;;;;0.86;100.00;100372.37;5590066;31;34846;-68
2023/01/27 11:01:01;;;;;;;;;;;;;;;0.84;100.00;100363.81;5590018;31;33430;-68
2023/01/27 11:04:24;;;;;;;;;;;;;;;0.78;100.00;100369.44;5567812;31;34456;-68
2023/01/27 11:07:29;;;;;;;;;;;;;;;0.48;100.00;100362.91;5589628;31;34302;-68
2023/01/27 11:10:37;;;;;;;;;;;;;;;0.75;100.00;100361.00;5563180;31;33960;-68
2023/01/27 11:13:42;;;;;;;;;;;;;;;0.39;100.00;100357.34;5589556;31;34667;-68
2023/01/27 11:16:49;;;;;;;;;;;;;;;0.63;100.00;100354.81;5589967;31;34093;-67
2023/01/27 11:20:12;;;;;;;;;;;;;;;0.48;100.00;100361.12;5590098;31;34314;-69
2023/01/27 11:23:16;;;;;;;;;;;;;;;0.53;100.00;100352.97;5576618;31;34222;-68
2023/01/27 11:26:43;;;;;;;;;;;;;;;0.38;100.00;100352.25;5589793;31;34611;-68
2023/01/27 11:29:52;;;;;;;;;;;;;;;0.31;100.00;100351.81;5581249;31;34213;-68
2023/01/27 11:33:02;;;;;;;;;;;;;;;0.65;100.00;100352.97;5589749;31;34766;-68
2023/01/27 11:36:08;;;;;;;;;;;;;;;0.66;100.00;100343.34;5576374;31;34354;-68
2023/01/27 11:39:13;;;;;;;;;;;;;;;0.54;100.00;100338.97;5589836;31;34400;-68
2023/01/27 11:42:17;;;;;;;;;;;;;;;0.46;100.00;100336.88;5589941;31;34255;-68
2023/01/27 11:45:22;;;;;;;;;;;;;;;0.51;100.00;100332.19;5589614;31;34633;-69
2023/01/27 11:48:35;;;;;;;;;;;;;;;0.73;100.00;100332.37;5589382;31;35101;-69
2023/01/27 11:51:42;;;;;;;;;;;;;;;0.46;100.00;100336.06;5576524;31;34986;-69
2023/01/27 11:55:03;;;;;;;;;;;;;;;0.24;100.00;100328.84;5590007;31;34402;-69
2023/01/27 11:58:15;;;;;;;;;;;;;;;0.55;100.00;100327.59;5589718;31;34215;-68
2023/01/27 12:01:21;;;;;;;;;;;;;;;0.31;100.00;100314.44;5576001;31;34949;-69
2023/01/27 12:04:45;;;;;;;;;;;;;;;0.27;100.00;100313.00;5589440;31;34730;-69
2023/01/27 12:07:54;;;;;;;;;;;;;;;0.39;100.00;100305.16;5568595;32;34138;-70
2023/01/27 12:11:15;;;;;;;;;;;;;;;0.50;100.00;100307.03;5568338;32;34945;-70
2023/01/27 12:14:22;;;;;;;;;;;;;;;0.46;100.00;100312.56;5569799;32;34568;-70
2023/01/27 12:17:29;;;;;;;;;;;;;;;0.58;100.00;100309.13;5569026;32;34287;-71
2023/01/27 12:20:40;;;;;;;;;;;;;;;0.73;100.00;100301.03;5569830;32;34129;-71
2023/01/27 12:23:53;;;;;;;;;;;;;;;0.91;100.00;100296.31;5569039;32;34798;-71
2023/01/27 12:26:59;;;;;;;;;;;;;;;0.94;100.00;100295.25;5569627;32;34286;-71
2023/01/27 12:30:05;;;;;;;;;;;;;;;0.62;100.00;100287.09;5568898;32;34907;-71
2023/01/27 12:33:16;;;;;;;;;;;;;;;0.86;100.00;100290.59;5569653;32;34139;-71
2023/01/27 12:36:23;;;;;;;;;;;;;;;0.85;100.00;100283.69;5569437;32;34185;-72
2023/01/27 12:39:38;;;;;;;;;;;;;;;1.27;100.00;100279.78;5568613;32;35082;-71
2023/01/27 12:42:47;;;;;;;;;;;;;;;1.12;100.00;100273.03;5569455;32;34381;-71
2023/01/27 12:46:04;;;;;;;;;;;;;;;1.11;100.00;100277.44;5569202;32;34953;-71
2023/01/27 12:49:14;;;;;;;;;;;;;;;0.86;100.00;100277.53;5568555;32;34711;-72
2023/01/27 12:52:20;;;;;;;;;;;;;;;0.96;100.00;100282.94;5569311;32;34194;-72
2023/01/27 12:55:29;;;;;;;;;;;;;;;0.93;100.00;100281.34;5568422;32;34936;-72
2023/01/27 12:58:45;;;;;;;;;;;;;;;0.85;100.00;100278.47;5568333;32;34844;-71
2023/01/27 13:02:00;;;;;;;;;;;;;;;1.09;100.00;100270.66;5569035;32;34599;-71
2023/01/27 13:05:09;;;;;;;;;;;;;;;1.04;100.00;100272.75;5568816;32;34165;-71
2023/01/27 13:08:16;;;;;;;;;;;;;;;0.58;100.00;100265.56;5555530;32;34204;-72
2023/01/27 13:11:30;;;;;;;;;;;;;;;0.38;100.00;100277.41;5568644;32;35213;-71
2023/01/27 13:14:39;;;;;;;;;;;;;;;0.46;100.00;100276.03;5567951;32;34257;-71
2023/01/27 13:17:54;;;;;;;;;;;;;;;0.90;100.00;100283.34;5568492;32;34339;-71
2023/01/27 13:21:06;;;;;;;;;;;;;;;0.74;100.00;100292.28;5568674;32;34879;-71
2023/01/27 13:24:13;;;;;;;;;;;;;;;0.61;100.00;100295.84;5569778;32;34321;-71
2023/01/27 13:27:22;;;;;;;;;;;;;;;0.80;100.00;100304.06;5570716;32;32576;-71
2023/01/27 13:30:36;;;;;;;;;;;;;;;0.66;100.00;100299.81;5570657;32;34888;-72
2023/01/27 13:33:55;;;;;;;;;;;;;;;0.53;100.00;100298.16;5571220;32;33825;-71
2023/01/27 13:37:02;;;;;;;;;;;;;;;0.30;100.00;100303.16;5570532;32;34838;-71
2023/01/27 13:40:17;;;;;;;;;;;;;;;0.38;100.00;100295.66;5570443;32;34315;-71
2023/01/27 13:43:32;;;;;;;;;;;;;;;0.63;100.00;100293.97;5570467;32;33030;-71
2023/01/27 13:46:39;;;;;;;;;;;;;;;0.43;100.00;100295.34;5571034;32;34236;-71
2023/01/27 13:49:47;;;;;;;;;;;;;;;0.47;100.00;100298.56;5570915;32;34232;-72
2023/01/27 13:52:57;;;;;;;;;;;;;;;0.31;100.00;100302.25;5570300;32;34256;-69
2023/01/27 13:56:16;;;;;;;;;;;;;;;0.40;100.00;100298.16;5570342;32;34802;-69
2023/01/27 13:59:49;;;;;;;;;;;;;;;0.31;100.00;100301.41;5570698;32;34859;-69
2023/01/27 14:03:04;;;;;;;;;;;;;;;0.44;100.00;100310.88;5570673;32;34604;-70
2023/01/27 14:06:21;;;;;;;;;;;;;;;0.62;100.00;100287.91;5570073;32;34912;-70
2023/01/27 14:09:37;;;;;;;;;;;;;;;0.57;100.00;100291.78;5569855;31;34231;-70
2023/01/27 14:13:05;;;;;;;;;;;;;;;0.57;100.00;100291.78;5570844;32;34030;-70
2023/01/27 14:16:27;;;;;;;;;;;;;;;0.86;100.00;100295.81;5569884;32;34906;-70
2023/01/27 14:19:43;;;;;;;;;;;;;;;0.87;100.00;100300.91;5570964;32;34880;-70
2023/01/27 14:22:50;;;;;;;;;;;;;;;1.07;100.00;100296.88;5570827;32;34246;-70
2023/01/27 14:26:10;;;;;;;;;;;;;;;1.08;100.00;100295.94;5570457;32;34298;-70
2023/01/27 14:29:38;;;;;;;;;;;;;;;0.99;100.00;100304.44;5570001;32;34210;-71
2023/01/27 14:32:45;;;;;;;;;;;;;;;0.89;100.00;100298.19;5570804;32;34348;-70
2023/01/27 14:35:59;;;;;;;;;;;;;;;0.61;100.00;100301.91;5570180;32;34152;-69
2023/01/27 14:39:15;;;;;;;;;;;;;;;0.61;100.00;100288.00;5570704;32;34251;-70
2023/01/27 14:42:27;;;;;;;;;;;;;;;0.55;100.00;100294.50;5569989;32;34291;-69
2023/01/27 14:45:37;;;;;;;;;;;;;;;0.61;100.00;100288.00;5570493;32;34277;-71
2023/01/27 14:48:44;;;;;;;;;;;;;;;0.63;100.00;100296.59;5570593;32;34897;-69
2023/01/27 14:51:54;;;;;;;;;;;;;;;0.54;100.00;100297.19;5570733;32;34259;-69
2023/01/27 14:55:09;;;;;;;;;;;;;;;0.48;100.00;100298.47;5570533;32;34183;-70
2023/01/27 14:58:30;;;;;;;;;;;;;;;0.34;100.00;100301.19;5570340;32;34692;-70
2023/01/27 15:01:46;;;;;;;;;;;;;;;0.42;100.00;100296.28;5569843;32;34131;-70
2023/01/27 15:05:09;;;;;;;;;;;;;;;0.38;100.00;100294.84;5570721;32;34862;-69
2023/01/27 15:08:24;;;;;;;;;;;;;;;0.54;100.00;100291.97;5576166;31;34399;-71
2023/01/27 15:12:04;;;;;;;;;;;;;;;0.58;100.00;100289.06;5589894;31;34351;-71
2023/01/27 15:15:25;;;;;;;;;;;;;;;0.62;100.00;100285.31;5536695;31;34524;-70
2023/01/27 15:18:34;;;;;;;;;;;;;;;0.51;100.00;100282.59;5590055;31;34338;-70
2023/01/27 15:22:02;;;;;;;;;;;;;;;0.54;100.00;100279.75;5589781;31;35119;-70
2023/01/27 15:25:22;;;;;;;;;;;;;;;0.52;100.00;100289.50;5589929;31;34225;-70
2023/01/27 15:28:30;;;;;;;;;;;;;;;0.49;100.00;100289.69;5576635;31;34682;-70
2023/01/27 15:31:39;;;;;;;;;;;;;;;0.42;100.00;100296.28;5590081;31;34826;-70
2023/01/27 15:34:53;;;;;;;;;;;;;;;0.41;100.00;100300.66;5589627;31;34257;-70
2023/01/27 15:38:01;;;;;;;;;;;;;;;0.37;100.00;100303.59;5589920;31;34269;-70
2023/01/27 15:41:11;;;;;;;;;;;;;;;0.40;100.00;100303.38;5589743;31;34741;-70
2023/01/27 15:44:16;;;;;;;;;;;;;;;0.47;100.00;100311.63;5576012;31;34256;-70
2023/01/27 15:47:26;;;;;;;;;;;;;;;0.39;100.00;100317.34;5587610;31;34282;-70
2023/01/27 15:50:46;;;;;;;;;;;;;;;0.40;100.00;100316.41;5575368;31;32865;-70
2023/01/27 15:53:55;;;;;;;;;;;;;;;0.48;100.00;100321.97;5575840;31;35124;-69
2023/01/27 15:57:03;;;;;;;;;;;;;;;0.51;100.00;100320.91;5589425;31;35231;-70
2023/01/27 16:00:23;;;;;;;;;;;;;;;0.52;100.00;100315.59;5576346;31;34295;-70
2023/01/27 16:03:31;;;;;;;;;;;;;;;0.53;100.00;100309.44;5589530;31;34765;-70
2023/01/27 16:07:00;;;;;;;;;;;;;;;0.48;100.00;100302.88;5589395;31;34156;-70
2023/01/27 16:10:15;;;;;;;;;;;;;;;0.51;100.00;100313.09;5589325;31;34239;-70
2023/01/27 16:13:26;;;;;;;;;;;;;;;0.64;100.00;100313.91;5589449;31;34900;-70
2023/01/27 16:16:34;;;;;;;;;;;;;;;0.66;100.00;100312.88;5589007;31;34950;-69
2023/01/27 16:19:46;;;;;;;;;;;;;;;0.63;100.00;100320.88;5575449;31;34893;-70
2023/01/27 16:22:58;;;;;;;;;;;;;;;0.58;100.00;100325.59;5589230;31;34697;-70
2023/01/27 16:26:08;;;;;;;;;;;;;;;0.63;100.00;100325.31;5588867;31;34441;-70
2023/01/27 16:29:23;;;;;;;;;;;;;;;0.60;100.00;100333.31;5589170;31;34872;-69
2023/01/27 16:32:35;;;;;;;;;;;;;;;0.63;100.00;100323.50;5589123;31;34977;-69
2023/01/27 16:35:48;;;;;;;;;;;;;;;0.57;100.00;100333.56;5588954;31;34934;-69
2023/01/27 16:39:23;;;;;;;;;;;;;;;0.66;100.00;100341.59;5576193;31;34591;-69
2023/01/27 16:42:33;;;;;;;;;;;;;;;0.73;100.00;100337.59;5588930;31;34781;-69